North Pembroke, Massachusetts
Current Conditions -  °F | °C
As of 8:15 PM on Sunday 21 Dec 2014 (Local Time) from KGHG Reporting Station
Overcast Overcast  
Wind Chill: 36°   Ceiling: 3800
Heat Index: 41°   Visibility: 10mi
Dew Point: 37°   Wind: 7mph
Humidity: 87%   Direction: 10°N
Pressure: 30.34"   Gusts: NA
Location:  42.1°N, 70.78°W
Report Text: KGHG 220115Z AUTO 01006KT 10SM FEW015 BKN038 OVC055 05/03 A3034 RMK AO2
Loading
Personal Weather Stations






























Interactive Weather Map New forecast layout! Learn more

10-Day Weather Forecast

Advertisements
Track Severe Weather on mobile